Arklow Wind — EIKZ — position and weather

sailwx.info

Track history (hours):
 
Tides and Currents Weather Stations Pressure Air Temp Water Temp Dewpoint Dewpoint Depression Visibility Wind Speed Wind Dir Waves Ship Positions

Arklow Wind

Last reported at 2014-Oct-02 05:18 UTC. Time now 2014-Oct-02 06:30 UTC.
Position N 36°48' E 013°25'.

Length 136 m; draft 8.8 m.

Type: Cargo ship. MMSI: 250506000.

Date/timePositionNaut miles runAvg speedWind from/ knotsBaromVisibWave heightAir tempDewpointWater temp
2014-Oct-02 05:18N 36°48' E 013°25'1112.1
2014-Oct-02 04:23N 36°44' E 013°38'1011.8
2014-Oct-02 03:33N 36°41' E 013°50'1211.7
2014-Oct-02 02:33N 36°37' E 014°03'1211.7
2014-Oct-02 01:33N 36°34' E 014°17'1212.1
2014-Oct-02 00:33N 36°30' E 014°32'46911.1
2014-Sep-30 06:20N 37°24' E 024°15'1113.2
2014-Sep-30 05:31N 37°33' E 024°24'1913.1
2014-Sep-30 04:04N 37°50' E 024°34'  
2014-Sep-24 04:34N 37°47' E 024°33'1312.3
2014-Sep-24 03:32N 37°35' E 024°26'1111.4
2014-Sep-24 02:34N 37°26' E 024°19'1211.3
2014-Sep-24 01:31N 37°17' E 024°09'2311.4
2014-Sep-23 23:30N 36°59' E 023°51'1211.3
2014-Sep-23 22:28N 36°50' E 023°42'2312.0
2014-Sep-23 20:31N 36°31' E 023°24'1212.6
2014-Sep-23 19:33N 36°23' E 023°14'1514.0
2014-Sep-23 18:30N 36°24' E 022°56'40112.8
2014-Sep-22 11:15N 38°48' E 015°04'2813.9
2014-Sep-22 09:12N 39°03' E 014°33'1014.1
2014-Sep-22 08:31N 39°08' E 014°22'2014.0
2014-Sep-22 07:08N 39°18' E 014°01'813.9
2014-Sep-22 06:33N 39°22' E 013°52'1413.8
2014-Sep-22 05:33N 39°29' E 013°37'  
Track history (hours):
 
Tides and Currents Weather Stations Pressure Air Temp Water Temp Dewpoint Dewpoint Depression Visibility Wind Speed Wind Dir Waves Ship Positions

Arklow Wind

Last reported at 2014-Oct-02 05:18 UTC. Time now 2014-Oct-02 06:30 UTC.
Position N 36°48' E 013°25'.

Length 136 m; draft 8.8 m.

Type: Cargo ship. MMSI: 250506000.

Date/timePositionNaut miles runAvg speedWind from/ knotsBaromVisibWave heightAir tempDewpointWater temp
2014-Oct-02 05:18N 36°48' E 013°25'1112.1
2014-Oct-02 04:23N 36°44' E 013°38'1011.8
2014-Oct-02 03:33N 36°41' E 013°50'1211.7
2014-Oct-02 02:33N 36°37' E 014°03'1211.7
2014-Oct-02 01:33N 36°34' E 014°17'1212.1
2014-Oct-02 00:33N 36°30' E 014°32'46911.1
2014-Sep-30 06:20N 37°24' E 024°15'1113.2
2014-Sep-30 05:31N 37°33' E 024°24'1913.1
2014-Sep-30 04:04N 37°50' E 024°34'  
2014-Sep-24 04:34N 37°47' E 024°33'1312.3
2014-Sep-24 03:32N 37°35' E 024°26'1111.4
2014-Sep-24 02:34N 37°26' E 024°19'1211.3
2014-Sep-24 01:31N 37°17' E 024°09'2311.4
2014-Sep-23 23:30N 36°59' E 023°51'1211.3
2014-Sep-23 22:28N 36°50' E 023°42'2312.0
2014-Sep-23 20:31N 36°31' E 023°24'1212.6
2014-Sep-23 19:33N 36°23' E 023°14'1514.0
2014-Sep-23 18:30N 36°24' E 022°56'40112.8
2014-Sep-22 11:15N 38°48' E 015°04'2813.9
2014-Sep-22 09:12N 39°03' E 014°33'1014.1
2014-Sep-22 08:31N 39°08' E 014°22'2014.0
2014-Sep-22 07:08N 39°18' E 014°01'813.9
2014-Sep-22 06:33N 39°22' E 013°52'1413.8
2014-Sep-22 05:33N 39°29' E 013°37'  

Dump ship's entire track history